createdAt,value
2022-09-02T00:01:57.912Z,19.20
2022-09-02T00:04:59.941Z,19.10
2022-09-02T00:08:02.034Z,19.00
2022-09-02T00:11:04.461Z,19.00
2022-09-02T00:14:10.369Z,19.00
2022-09-02T00:17:12.548Z,19.10
2022-09-02T00:20:14.408Z,19.10
2022-09-02T00:23:18.924Z,18.90
2022-09-02T00:26:21.441Z,18.90
2022-09-02T00:29:23.481Z,18.80
2022-09-02T00:32:25.334Z,18.80
2022-09-02T00:35:27.439Z,18.90
2022-09-02T00:38:31.153Z,18.80
2022-09-02T00:41:33.287Z,18.90
2022-09-02T00:44:35.248Z,18.70
2022-09-02T00:47:40.095Z,18.70
2022-09-02T00:50:42.141Z,18.60
2022-09-02T00:53:46.573Z,18.60
2022-09-02T00:56:49.968Z,18.50
2022-09-02T01:00:23.290Z,18.50
2022-09-02T01:03:31.580Z,18.50
2022-09-02T01:06:33.630Z,18.50
2022-09-02T01:09:35.776Z,18.50
2022-09-02T01:12:38.317Z,18.40
2022-09-02T01:15:44.392Z,18.40
2022-09-02T01:18:50.605Z,18.40
2022-09-02T01:21:55.057Z,18.20
2022-09-02T01:25:04.281Z,18.10
2022-09-02T01:28:11.082Z,18.20
2022-09-02T01:31:14.987Z,18.30
2022-09-02T01:34:17.321Z,18.30
2022-09-02T01:37:20.613Z,18.40
2022-09-02T01:40:24.085Z,18.20
2022-09-02T01:43:28.644Z,18.10
2022-09-02T01:46:30.777Z,17.90
2022-09-02T01:49:35.321Z,18.00
2022-09-02T01:52:38.267Z,17.90
2022-09-02T01:55:40.170Z,17.90
2022-09-02T01:58:42.811Z,17.80
2022-09-02T02:01:45.970Z,17.70
2022-09-02T02:04:49.481Z,17.80
2022-09-02T02:07:51.778Z,17.70
2022-09-02T02:10:53.947Z,17.70
2022-09-02T02:13:57.943Z,17.80
2022-09-02T02:17:01.379Z,17.60
2022-09-02T02:20:03.843Z,17.90
2022-09-02T02:23:06.904Z,17.90
2022-09-02T02:26:09.106Z,17.70
2022-09-02T02:29:12.957Z,17.80
2022-09-02T02:32:15.110Z,17.60
2022-09-02T02:35:18.675Z,17.70
2022-09-02T02:38:20.720Z,17.70
2022-09-02T02:41:23.374Z,17.70
2022-09-02T02:44:25.331Z,17.60
2022-09-02T02:47:27.418Z,17.50
2022-09-02T02:50:29.398Z,17.50
2022-09-02T02:53:35.099Z,17.50
2022-09-02T02:56:37.306Z,17.70
2022-09-02T02:59:39.546Z,17.60
2022-09-02T03:02:42.248Z,17.80
2022-09-02T03:05:44.311Z,17.80
2022-09-02T03:08:46.401Z,17.60
2022-09-02T03:11:53.841Z,17.60
2022-09-02T03:14:55.775Z,17.60
2022-09-02T03:17:57.812Z,17.40
2022-09-02T03:21:00.534Z,17.50
2022-09-02T03:24:02.673Z,17.40
2022-09-02T03:27:05.238Z,17.40
2022-09-02T03:30:09.800Z,17.30
2022-09-02T03:33:12.365Z,17.20
2022-09-02T03:36:27.490Z,17.20
2022-09-02T03:39:30.795Z,17.20
2022-09-02T03:42:33.386Z,17.00
2022-09-02T03:45:35.468Z,17.00
2022-09-02T03:48:41.037Z,17.00
2022-09-02T03:51:46.192Z,17.10
2022-09-02T03:54:48.285Z,16.90
2022-09-02T03:57:50.628Z,16.90
2022-09-02T04:00:53.991Z,16.80
2022-09-02T04:03:57.739Z,16.90
2022-09-02T04:07:00.859Z,17.00
2022-09-02T04:10:04.292Z,16.90
2022-09-02T04:13:06.926Z,16.90
2022-09-02T04:16:12.052Z,17.00
2022-09-02T04:19:14.166Z,16.70
2022-09-02T04:22:17.121Z,16.70
2022-09-02T04:25:19.504Z,16.70
2022-09-02T04:28:29.260Z,16.60
2022-09-02T04:31:35.900Z,16.60
2022-09-02T04:34:38.281Z,16.50
2022-09-02T04:37:40.126Z,16.40
2022-09-02T04:40:46.220Z,16.50
2022-09-02T04:43:49.762Z,16.50
2022-09-02T04:46:52.127Z,16.30
2022-09-02T04:49:57.008Z,16.40
2022-09-02T04:52:59.275Z,16.30
2022-09-02T04:56:07.642Z,16.30
2022-09-02T04:59:10.670Z,16.40
2022-09-02T05:02:17.835Z,16.50
2022-09-02T05:05:20.522Z,16.40
2022-09-02T05:08:30.100Z,16.50
2022-09-02T05:11:32.634Z,16.50
2022-09-02T05:14:34.482Z,16.50
2022-09-02T05:17:39.980Z,16.40
2022-09-02T05:20:42.761Z,16.40
2022-09-02T05:23:45.643Z,16.50
2022-09-02T05:26:48.170Z,16.30
2022-09-02T05:29:50.325Z,16.20
2022-09-02T05:32:55.711Z,16.20
2022-09-02T05:35:58.636Z,16.40
2022-09-02T05:39:01.022Z,16.50
2022-09-02T05:42:03.025Z,16.70
2022-09-02T05:45:11.640Z,16.70
2022-09-02T05:48:18.330Z,16.80
2022-09-02T05:51:20.906Z,17.00
2022-09-02T05:54:27.241Z,17.00
2022-09-02T05:57:29.571Z,17.10
2022-09-02T06:00:35.749Z,17.30
2022-09-02T06:03:38.418Z,17.50
2022-09-02T06:06:42.880Z,17.50
2022-09-02T06:09:45.882Z,17.80
2022-09-02T06:12:48.817Z,18.20
2022-09-02T06:15:54.393Z,18.40
2022-09-02T06:19:02.234Z,18.40
2022-09-02T06:22:04.875Z,18.90
2022-09-02T06:25:09.725Z,19.30
2022-09-02T06:28:13.221Z,19.40
2022-09-02T06:31:21.327Z,20.00
2022-09-02T06:34:25.268Z,20.60
2022-09-02T06:37:27.435Z,21.30
2022-09-02T06:40:29.971Z,21.50
2022-09-02T06:43:37.723Z,22.00
2022-09-02T06:46:59.407Z,22.50
2022-09-02T06:50:05.425Z,22.90
2022-09-02T06:53:08.042Z,23.10
2022-09-02T06:56:11.640Z,23.50
2022-09-02T06:59:14.957Z,23.60
2022-09-02T07:05:40.480Z,24.50
2022-09-02T07:08:43.650Z,24.80
2022-09-02T07:11:47.659Z,24.40
2022-09-02T07:14:50.095Z,24.50
2022-09-02T07:17:57.444Z,25.10
2022-09-02T07:21:12.525Z,25.20
2022-09-02T07:24:16.654Z,25.40
2022-09-02T07:27:19.484Z,25.90
2022-09-02T07:30:23.402Z,26.10
2022-09-02T07:33:32.245Z,25.50
2022-09-02T07:36:38.285Z,26.00
2022-09-02T07:39:42.479Z,26.40
2022-09-02T07:42:47.586Z,26.70
2022-09-02T07:45:50.069Z,26.70
2022-09-02T07:48:52.680Z,27.00
2022-09-02T07:51:55.557Z,27.80
2022-09-02T07:54:57.674Z,26.80
2022-09-02T07:58:00.540Z,27.50
2022-09-02T08:01:02.727Z,27.30
2022-09-02T08:04:06.253Z,27.80
2022-09-02T08:07:14.867Z,27.20
2022-09-02T08:10:17.205Z,27.30
2022-09-02T08:13:19.620Z,26.70
2022-09-02T08:16:23.759Z,26.60
2022-09-02T08:19:26.096Z,26.90
2022-09-02T08:25:36.712Z,27.60
2022-09-02T08:28:38.915Z,28.20
2022-09-02T08:31:40.924Z,28.20
2022-09-02T08:34:42.945Z,28.60
2022-09-02T08:37:45.577Z,29.00
2022-09-02T08:40:48.138Z,28.10
2022-09-02T08:43:55.037Z,29.00
2022-09-02T08:47:03.343Z,28.50
2022-09-02T08:50:15.190Z,28.70
2022-09-02T08:53:30.824Z,28.50
2022-09-02T08:56:35.066Z,28.30
2022-09-02T08:59:38.151Z,28.50
2022-09-02T09:03:13.448Z,29.10
2022-09-02T09:06:31.981Z,29.00
2022-09-02T09:09:40.250Z,29.40
2022-09-02T09:13:00.707Z,28.50
2022-09-02T09:16:09.385Z,29.10
2022-09-02T09:19:35.865Z,28.90
2022-09-02T09:22:39.839Z,28.90
2022-09-02T09:25:42.946Z,28.90
2022-09-02T09:28:47.374Z,29.50
2022-09-02T09:31:58.931Z,29.00
2022-09-02T09:35:07.463Z,29.10
2022-09-02T09:38:14.086Z,29.10
2022-09-02T09:41:23.055Z,29.60
2022-09-02T09:44:46.752Z,29.20
2022-09-02T09:48:14.354Z,28.00
2022-09-02T09:51:16.365Z,28.30
2022-09-02T09:54:18.388Z,28.40
2022-09-02T09:57:21.620Z,29.00
2022-09-02T10:00:31.345Z,29.00
2022-09-02T10:03:33.557Z,28.80
2022-09-02T10:06:44.941Z,29.30
2022-09-02T10:09:48.452Z,29.00
2022-09-02T10:12:53.870Z,28.80
2022-09-02T10:16:21.162Z,27.70
2022-09-02T10:19:39.314Z,28.60
2022-09-02T10:23:08.834Z,28.60
2022-09-02T10:29:54.950Z,28.30
2022-09-02T10:33:08.393Z,28.80
2022-09-02T10:36:25.123Z,29.00
2022-09-02T10:39:57.735Z,30.00
2022-09-02T10:43:05.763Z,29.40
2022-09-02T10:46:09.657Z,29.00
2022-09-02T10:49:29.348Z,29.20
2022-09-02T11:03:33.244Z,28.70
2022-09-02T11:07:01.809Z,27.70
2022-09-02T11:10:56.517Z,27.50
2022-09-02T11:14:21.045Z,27.90
2022-09-02T11:17:33.431Z,27.50
2022-09-02T11:20:38.227Z,28.20
2022-09-02T11:24:09.932Z,27.80
2022-09-02T11:27:32.164Z,28.20
2022-09-02T11:30:47.018Z,27.90
2022-09-02T11:37:29.611Z,28.30
2022-09-02T11:44:52.673Z,27.70
2022-09-02T11:48:14.265Z,27.40
2022-09-02T11:51:34.681Z,28.00
2022-09-02T11:54:41.218Z,28.00
2022-09-02T11:57:43.404Z,27.80
2022-09-02T12:00:57.457Z,27.40
2022-09-02T12:07:47.907Z,27.70
2022-09-02T12:10:49.752Z,27.70
2022-09-02T12:13:51.640Z,27.90
2022-09-02T12:17:06.133Z,27.90
2022-09-02T12:20:11.476Z,28.10
2022-09-02T12:23:48.681Z,28.00
2022-09-02T12:26:51.669Z,27.80
2022-09-02T12:29:55.589Z,27.90
2022-09-02T12:33:10.196Z,27.80
2022-09-02T12:36:36.844Z,27.60
2022-09-02T12:39:41.784Z,27.90
2022-09-02T12:42:46.743Z,28.00
2022-09-02T12:45:50.742Z,27.60
2022-09-02T12:49:11.829Z,27.50
2022-09-02T12:52:36.417Z,27.70
2022-09-02T12:55:50.469Z,27.70
2022-09-02T12:59:01.714Z,27.60
2022-09-02T13:02:30.630Z,27.90
2022-09-02T13:05:59.237Z,27.60
2022-09-02T13:09:37.190Z,27.50
2022-09-02T13:12:55.934Z,27.80
2022-09-02T13:16:22.121Z,27.30
2022-09-02T13:19:30.308Z,27.50
2022-09-02T13:22:48.056Z,27.70
2022-09-02T13:26:45.591Z,27.80
2022-09-02T13:30:05.040Z,27.80
2022-09-02T13:33:11.596Z,28.00
2022-09-02T13:36:27.713Z,27.50
2022-09-02T13:39:29.782Z,27.50
2022-09-02T13:42:32.734Z,27.60
2022-09-02T13:45:35.833Z,27.80
2022-09-02T13:48:40.291Z,27.70
2022-09-02T13:51:42.332Z,27.80
2022-09-02T13:54:48.385Z,27.70
2022-09-02T13:58:03.303Z,27.80
2022-09-02T14:01:38.519Z,27.90
2022-09-02T14:04:40.677Z,27.70
2022-09-02T14:07:50.210Z,27.80
2022-09-02T14:10:53.541Z,27.60
2022-09-02T14:13:56.747Z,27.80
2022-09-02T14:17:21.824Z,28.00
2022-09-02T14:20:23.787Z,27.40
2022-09-02T14:23:27.898Z,28.00
2022-09-02T14:26:37.286Z,27.90
2022-09-02T14:29:44.932Z,27.60
2022-09-02T14:32:46.874Z,27.70
2022-09-02T14:35:57.098Z,27.70
2022-09-02T14:39:18.001Z,27.70
2022-09-02T14:42:20.198Z,27.80
2022-09-02T14:45:30.678Z,27.90
2022-09-02T14:48:38.215Z,27.70
2022-09-02T14:51:49.204Z,27.50
2022-09-02T14:54:52.751Z,27.40
2022-09-02T14:58:02.408Z,27.50
2022-09-02T15:01:04.680Z,27.70
2022-09-02T15:04:06.733Z,27.80
2022-09-02T15:07:08.648Z,27.80
2022-09-02T15:10:10.776Z,27.80
2022-09-02T15:13:18.639Z,27.70
2022-09-02T15:16:20.699Z,27.60
2022-09-02T15:19:22.742Z,27.40
2022-09-02T15:22:25.186Z,27.50
2022-09-02T15:25:27.155Z,27.40
2022-09-02T15:28:29.123Z,27.50
2022-09-02T15:31:31.106Z,27.40
2022-09-02T15:34:34.017Z,27.10
2022-09-02T15:37:36.713Z,27.00
2022-09-02T15:40:38.610Z,26.90
2022-09-02T15:43:40.755Z,26.90
2022-09-02T15:46:43.871Z,27.00
2022-09-02T15:49:45.767Z,27.00
2022-09-02T15:52:47.576Z,27.00
2022-09-02T15:55:49.535Z,27.00
2022-09-02T15:58:59.492Z,26.60
2022-09-02T16:02:01.604Z,26.80
2022-09-02T16:05:03.783Z,26.80
2022-09-02T16:08:05.737Z,26.90
2022-09-02T16:11:08.932Z,26.70
2022-09-02T16:14:11.135Z,26.70
2022-09-02T16:17:13.009Z,26.60
2022-09-02T16:20:19.166Z,26.50
2022-09-02T16:23:23.288Z,26.50
2022-09-02T16:26:27.618Z,26.40
2022-09-02T16:29:29.472Z,26.40
2022-09-02T16:32:31.363Z,26.50
2022-09-02T16:35:33.319Z,26.40
2022-09-02T16:38:35.178Z,26.20
2022-09-02T16:41:40.556Z,26.20
2022-09-02T16:44:42.472Z,26.20
2022-09-02T16:47:44.597Z,26.10
2022-09-02T16:50:47.298Z,26.10
2022-09-02T16:53:57.181Z,26.10
2022-09-02T16:56:59.623Z,26.10
2022-09-02T17:00:01.526Z,26.00
2022-09-02T17:03:03.503Z,26.10
2022-09-02T17:06:06.346Z,26.00
2022-09-02T17:09:08.314Z,26.00
2022-09-02T17:12:10.317Z,25.90
2022-09-02T17:15:12.165Z,25.90
2022-09-02T17:18:14.091Z,25.80
2022-09-02T17:21:52.271Z,25.80
2022-09-02T17:24:54.171Z,25.70
2022-09-02T17:27:56.026Z,25.50
2022-09-02T17:30:58.011Z,25.50
2022-09-02T17:34:02.325Z,25.40
2022-09-02T17:37:04.617Z,25.30
2022-09-02T17:40:09.201Z,25.10
2022-09-02T17:43:11.266Z,25.00
2022-09-02T17:46:13.210Z,25.00
2022-09-02T17:49:17.755Z,24.90
2022-09-02T17:52:22.319Z,24.80
2022-09-02T17:55:24.277Z,24.60
2022-09-02T17:58:29.370Z,24.50
2022-09-02T18:01:36.259Z,24.40
2022-09-02T18:04:58.209Z,24.40
2022-09-02T18:08:13.868Z,24.00
2022-09-02T18:11:15.842Z,24.00
2022-09-02T18:14:23.836Z,23.90
2022-09-02T18:17:41.231Z,23.90
2022-09-02T18:20:46.842Z,23.70
2022-09-02T18:24:23.992Z,23.60
2022-09-02T18:27:44.216Z,23.50
2022-09-02T18:31:07.914Z,23.50
2022-09-02T18:34:38.276Z,23.60
2022-09-02T18:38:00.709Z,23.50
2022-09-02T18:41:54.728Z,23.50
2022-09-02T18:45:21.919Z,23.50
2022-09-02T18:48:36.635Z,23.30
2022-09-02T18:51:45.480Z,23.40
2022-09-02T18:54:51.628Z,23.30
2022-09-02T18:57:57.376Z,23.10
2022-09-02T19:01:20.829Z,23.10
2022-09-02T19:04:29.239Z,23.00
2022-09-02T19:07:31.906Z,22.90
2022-09-02T19:10:33.840Z,23.00
2022-09-02T19:13:50.860Z,22.90
2022-09-02T19:16:53.858Z,22.70
2022-09-02T19:19:55.839Z,22.70
2022-09-02T19:22:58.152Z,22.70
2022-09-02T19:26:00.022Z,22.80
2022-09-02T19:29:01.907Z,22.50
2022-09-02T19:32:04.408Z,22.50
2022-09-02T19:35:10.516Z,22.60
2022-09-02T19:38:12.527Z,22.40
2022-09-02T19:41:14.505Z,22.50
2022-09-02T19:44:16.305Z,22.50
2022-09-02T19:48:05.096Z,22.40
2022-09-02T19:50:44.530Z,22.50
2022-09-02T19:53:46.810Z,22.50
2022-09-02T19:56:48.644Z,22.40
2022-09-02T19:59:52.990Z,22.40
2022-09-02T20:02:55.675Z,22.30
2022-09-02T20:05:58.969Z,22.40
2022-09-02T20:09:01.063Z,22.40
2022-09-02T20:12:03.071Z,22.40
2022-09-02T20:15:05.948Z,22.40
2022-09-02T20:18:13.332Z,22.20
2022-09-02T20:21:30.700Z,22.20
2022-09-02T20:24:34.155Z,22.10
2022-09-02T20:27:59.136Z,22.10
2022-09-02T20:31:35.185Z,22.10
2022-09-02T20:34:49.493Z,22.00
2022-09-02T20:37:59.824Z,22.00
2022-09-02T20:41:35.798Z,22.00
2022-09-02T20:44:50.639Z,22.00
2022-09-02T20:48:02.595Z,22.00
2022-09-02T20:51:29.300Z,22.00
2022-09-02T20:54:44.776Z,21.90
2022-09-02T20:58:01.351Z,22.00
2022-09-02T21:01:06.387Z,22.10
2022-09-02T21:04:26.994Z,22.00
2022-09-02T21:07:35.015Z,22.00
2022-09-02T21:10:43.082Z,22.10
2022-09-02T21:13:47.862Z,22.00
2022-09-02T21:16:57.249Z,21.90
2022-09-02T21:20:06.204Z,21.80
2022-09-02T21:23:17.883Z,21.80
2022-09-02T21:26:31.034Z,21.70
2022-09-02T21:29:48.481Z,21.80
2022-09-02T21:32:56.213Z,21.70
2022-09-02T21:36:00.038Z,21.90
2022-09-02T21:39:08.897Z,21.90
2022-09-02T21:42:25.402Z,21.90
2022-09-02T21:46:16.482Z,21.90
2022-09-02T21:50:03.327Z,22.00
2022-09-02T21:53:23.088Z,21.90
2022-09-02T21:56:55.986Z,21.90
2022-09-02T22:00:00.699Z,21.80
2022-09-02T22:03:23.652Z,21.70
2022-09-02T22:06:47.868Z,21.60
2022-09-02T22:10:08.163Z,21.80
2022-09-02T22:13:11.046Z,21.80
2022-09-02T22:16:20.217Z,21.80
2022-09-02T22:19:26.160Z,21.70
2022-09-02T22:22:31.721Z,21.80
2022-09-02T22:25:33.620Z,21.70
2022-09-02T22:28:46.525Z,21.70
2022-09-02T22:31:50.189Z,21.80
2022-09-02T22:35:17.482Z,21.80
2022-09-02T22:38:28.981Z,21.90
2022-09-02T22:41:33.725Z,21.70
2022-09-02T22:44:45.234Z,21.70
2022-09-02T22:47:55.735Z,21.80
2022-09-02T22:51:08.307Z,21.60
2022-09-02T22:54:10.283Z,21.60
2022-09-02T22:57:30.747Z,21.60
2022-09-02T23:00:43.120Z,21.60
2022-09-02T23:03:45.115Z,21.60
2022-09-02T23:06:47.073Z,21.70
2022-09-02T23:09:52.318Z,21.70
2022-09-02T23:13:15.051Z,21.70
2022-09-02T23:16:36.555Z,21.70
2022-09-02T23:19:46.078Z,21.80
2022-09-02T23:23:26.691Z,21.70
2022-09-02T23:26:57.124Z,21.90
2022-09-02T23:29:59.005Z,21.90
2022-09-02T23:33:31.543Z,21.90
2022-09-02T23:37:09.490Z,21.90
2022-09-02T23:40:27.936Z,21.90
2022-09-02T23:43:32.900Z,21.80
2022-09-02T23:47:32.378Z,21.70
2022-09-02T23:50:37.251Z,21.70
2022-09-02T23:53:58.026Z,21.50
2022-09-02T23:57:32.592Z,21.70
